sensor_id;sensor_type;location;lat;lon;timestamp;P1;durP1;ratioP1;P2;durP2;ratioP2
12114;SDS011;6121;49.810;6.418;2022-12-01T00:00:42;11.43;;;9.55;;
12114;SDS011;6121;49.810;6.418;2022-12-01T00:03:08;12.67;;;9.93;;
12114;SDS011;6121;49.810;6.418;2022-12-01T00:05:34;10.38;;;9.15;;
12114;SDS011;6121;49.810;6.418;2022-12-01T00:08:00;15.20;;;13.70;;
12114;SDS011;6121;49.810;6.418;2022-12-01T00:10:26;20.42;;;18.60;;
12114;SDS011;6121;49.810;6.418;2022-12-01T00:12:53;102.50;;;97.28;;
12114;SDS011;6121;49.810;6.418;2022-12-01T00:15:26;332.77;;;318.97;;
12114;SDS011;6121;49.810;6.418;2022-12-01T00:17:53;390.00;;;373.70;;
12114;SDS011;6121;49.810;6.418;2022-12-01T00:20:19;965.63;;;903.92;;
12114;SDS011;6121;49.810;6.418;2022-12-01T00:22:45;974.17;;;912.50;;
12114;SDS011;6121;49.810;6.418;2022-12-01T00:25:12;549.33;;;513.83;;
12114;SDS011;6121;49.810;6.418;2022-12-01T00:27:40;954.70;;;893.08;;
12114;SDS011;6121;49.810;6.418;2022-12-01T00:30:06;961.53;;;899.43;;
12114;SDS011;6121;49.810;6.418;2022-12-01T00:32:36;971.30;;;909.90;;
12114;SDS011;6121;49.810;6.418;2022-12-01T00:35:02;971.63;;;909.87;;
12114;SDS011;6121;49.810;6.418;2022-12-01T00:37:29;963.65;;;902.20;;
12114;SDS011;6121;49.810;6.418;2022-12-01T00:39:56;971.17;;;909.17;;
12114;SDS011;6121;49.810;6.418;2022-12-01T00:42:22;958.90;;;897.83;;
12114;SDS011;6121;49.810;6.418;2022-12-01T00:44:48;966.05;;;904.67;;
12114;SDS011;6121;49.810;6.418;2022-12-01T00:47:13;965.42;;;903.95;;
12114;SDS011;6121;49.810;6.418;2022-12-01T00:49:39;956.17;;;896.55;;
12114;SDS011;6121;49.810;6.418;2022-12-01T00:52:05;965.58;;;903.78;;
12114;SDS011;6121;49.810;6.418;2022-12-01T00:54:31;5.45;;;4.95;;
12114;SDS011;6121;49.810;6.418;2022-12-01T00:56:57;6.18;;;5.55;;
12114;SDS011;6121;49.810;6.418;2022-12-01T00:59:23;6.00;;;5.35;;
12114;SDS011;6121;49.810;6.418;2022-12-01T01:01:49;6.20;;;5.60;;
12114;SDS011;6121;49.810;6.418;2022-12-01T01:04:15;6.07;;;5.47;;
12114;SDS011;6121;49.810;6.418;2022-12-01T01:06:41;5.18;;;4.68;;
12114;SDS011;6121;49.810;6.418;2022-12-01T01:09:07;5.73;;;5.17;;
12114;SDS011;6121;49.810;6.418;2022-12-01T01:11:36;5.20;;;4.70;;
12114;SDS011;6121;49.810;6.418;2022-12-01T01:14:02;6.78;;;6.18;;
12114;SDS011;6121;49.810;6.418;2022-12-01T01:16:28;4.85;;;4.45;;
12114;SDS011;6121;49.810;6.418;2022-12-01T01:18:54;6.20;;;5.60;;
12114;SDS011;6121;49.810;6.418;2022-12-01T01:21:20;5.73;;;5.13;;
12114;SDS011;6121;49.810;6.418;2022-12-01T01:23:46;5.78;;;5.28;;
12114;SDS011;6121;49.810;6.418;2022-12-01T01:28:43;5.57;;;5.07;;
12114;SDS011;6121;49.810;6.418;2022-12-01T01:31:10;5.50;;;4.82;;
12114;SDS011;6121;49.810;6.418;2022-12-01T01:33:38;6.60;;;5.97;;
12114;SDS011;6121;49.810;6.418;2022-12-01T01:36:04;6.53;;;5.57;;
12114;SDS011;6121;49.810;6.418;2022-12-01T01:38:31;5.20;;;4.80;;
12114;SDS011;6121;49.810;6.418;2022-12-01T01:40:57;5.33;;;4.83;;
12114;SDS011;6121;49.810;6.418;2022-12-01T01:46:20;5.80;;;5.30;;
12114;SDS011;6121;49.810;6.418;2022-12-01T01:48:54;5.05;;;4.65;;
12114;SDS011;6121;49.810;6.418;2022-12-01T01:51:35;6.60;;;6.00;;
12114;SDS011;6121;49.810;6.418;2022-12-01T01:54:06;5.78;;;5.30;;
12114;SDS011;6121;49.810;6.418;2022-12-01T01:56:39;4.30;;;3.92;;
12114;SDS011;6121;49.810;6.418;2022-12-01T01:59:07;5.43;;;4.88;;
12114;SDS011;6121;49.810;6.418;2022-12-01T02:01:34;5.78;;;5.28;;
12114;SDS011;6121;49.810;6.418;2022-12-01T02:03:59;5.68;;;5.18;;
12114;SDS011;6121;49.810;6.418;2022-12-01T02:06:25;4.90;;;4.28;;
12114;SDS011;6121;49.810;6.418;2022-12-01T02:08:51;6.13;;;5.53;;
12114;SDS011;6121;49.810;6.418;2022-12-01T02:11:27;5.53;;;5.03;;
12114;SDS011;6121;49.810;6.418;2022-12-01T02:16:43;4.47;;;4.07;;
12114;SDS011;6121;49.810;6.418;2022-12-01T02:19:37;4.73;;;4.33;;
12114;SDS011;6121;49.810;6.418;2022-12-01T02:25:22;4.43;;;4.05;;
12114;SDS011;6121;49.810;6.418;2022-12-01T02:30:38;5.65;;;5.18;;
12114;SDS011;6121;49.810;6.418;2022-12-01T02:33:16;5.75;;;5.25;;
12114;SDS011;6121;49.810;6.418;2022-12-01T02:38:20;5.72;;;5.07;;
12114;SDS011;6121;49.810;6.418;2022-12-01T02:43:43;5.50;;;5.03;;
12114;SDS011;6121;49.810;6.418;2022-12-01T02:46:33;5.53;;;4.45;;
12114;SDS011;6121;49.810;6.418;2022-12-01T02:49:07;7.50;;;5.22;;
12114;SDS011;6121;49.810;6.418;2022-12-01T02:51:40;6.18;;;5.57;;
12114;SDS011;6121;49.810;6.418;2022-12-01T02:54:11;6.18;;;5.65;;
12114;SDS011;6121;49.810;6.418;2022-12-01T02:56:38;5.67;;;5.13;;
12114;SDS011;6121;49.810;6.418;2022-12-01T02:59:07;5.60;;;5.10;;
12114;SDS011;6121;49.810;6.418;2022-12-01T03:07:06;6.10;;;5.53;;
12114;SDS011;6121;49.810;6.418;2022-12-01T03:12:34;5.38;;;4.85;;
12114;SDS011;6121;49.810;6.418;2022-12-01T03:20:27;6.80;;;6.13;;
12114;SDS011;6121;49.810;6.418;2022-12-01T03:23:06;5.70;;;5.03;;
12114;SDS011;6121;49.810;6.418;2022-12-01T03:25:35;5.50;;;4.95;;
12114;SDS011;6121;49.810;6.418;2022-12-01T03:28:04;5.82;;;5.30;;
12114;SDS011;6121;49.810;6.418;2022-12-01T03:30:32;6.07;;;5.43;;
12114;SDS011;6121;49.810;6.418;2022-12-01T03:33:02;6.25;;;5.65;;
12114;SDS011;6121;49.810;6.418;2022-12-01T03:36:17;6.10;;;5.20;;
12114;SDS011;6121;49.810;6.418;2022-12-01T03:38:25;6.85;;;5.75;;
12114;SDS011;6121;49.810;6.418;2022-12-01T03:40:57;6.20;;;5.40;;
12114;SDS011;6121;49.810;6.418;2022-12-01T03:43:30;9.63;;;7.70;;
12114;SDS011;6121;49.810;6.418;2022-12-01T03:46:18;8.38;;;6.53;;
12114;SDS011;6121;49.810;6.418;2022-12-01T03:49:08;7.57;;;6.28;;
12114;SDS011;6121;49.810;6.418;2022-12-01T03:51:39;6.47;;;5.80;;
12114;SDS011;6121;49.810;6.418;2022-12-01T03:54:15;7.03;;;6.32;;
12114;SDS011;6121;49.810;6.418;2022-12-01T03:57:06;8.65;;;7.10;;
12114;SDS011;6121;49.810;6.418;2022-12-01T03:59:34;7.25;;;6.22;;
12114;SDS011;6121;49.810;6.418;2022-12-01T04:02:02;8.13;;;6.88;;
12114;SDS011;6121;49.810;6.418;2022-12-01T04:04:30;7.38;;;6.45;;
12114;SDS011;6121;49.810;6.418;2022-12-01T04:06:56;8.80;;;7.50;;
12114;SDS011;6121;49.810;6.418;2022-12-01T04:09:21;9.63;;;8.63;;
12114;SDS011;6121;49.810;6.418;2022-12-01T04:11:47;594.50;;;568.50;;
12114;SDS011;6121;49.810;6.418;2022-12-01T04:14:31;625.47;;;597.58;;
12114;SDS011;6121;49.810;6.418;2022-12-01T04:16:56;802.77;;;764.33;;
12114;SDS011;6121;49.810;6.418;2022-12-01T04:19:22;847.25;;;805.95;;
12114;SDS011;6121;49.810;6.418;2022-12-01T04:21:49;602.20;;;575.72;;
12114;SDS011;6121;49.810;6.418;2022-12-01T04:24:15;694.10;;;662.07;;
12114;SDS011;6121;49.810;6.418;2022-12-01T04:26:41;953.28;;;892.75;;
12114;SDS011;6121;49.810;6.418;2022-12-01T04:29:08;951.47;;;891.47;;
12114;SDS011;6121;49.810;6.418;2022-12-01T04:31:35;956.05;;;895.35;;
12114;SDS011;6121;49.810;6.418;2022-12-01T04:34:00;939.35;;;883.53;;
12114;SDS011;6121;49.810;6.418;2022-12-01T04:36:28;950.28;;;890.25;;
12114;SDS011;6121;49.810;6.418;2022-12-01T04:38:54;10.18;;;8.90;;
12114;SDS011;6121;49.810;6.418;2022-12-01T04:41:20;13.00;;;11.55;;
12114;SDS011;6121;49.810;6.418;2022-12-01T04:43:46;13.43;;;11.70;;
12114;SDS011;6121;49.810;6.418;2022-12-01T04:46:11;11.32;;;10.13;;
12114;SDS011;6121;49.810;6.418;2022-12-01T04:48:38;12.10;;;10.87;;
12114;SDS011;6121;49.810;6.418;2022-12-01T04:51:04;12.32;;;10.48;;
12114;SDS011;6121;49.810;6.418;2022-12-01T04:53:31;11.53;;;10.43;;
12114;SDS011;6121;49.810;6.418;2022-12-01T04:55:58;12.02;;;10.50;;
12114;SDS011;6121;49.810;6.418;2022-12-01T04:58:24;17.70;;;13.77;;
12114;SDS011;6121;49.810;6.418;2022-12-01T05:00:50;13.90;;;11.23;;
12114;SDS011;6121;49.810;6.418;2022-12-01T05:03:16;14.13;;;11.73;;
12114;SDS011;6121;49.810;6.418;2022-12-01T05:05:42;11.13;;;9.10;;
12114;SDS011;6121;49.810;6.418;2022-12-01T05:08:07;13.10;;;11.73;;
12114;SDS011;6121;49.810;6.418;2022-12-01T05:10:34;13.20;;;11.32;;
12114;SDS011;6121;49.810;6.418;2022-12-01T05:13:00;13.32;;;11.95;;
12114;SDS011;6121;49.810;6.418;2022-12-01T05:15:26;20.88;;;12.52;;
12114;SDS011;6121;49.810;6.418;2022-12-01T05:17:52;13.27;;;11.60;;
12114;SDS011;6121;49.810;6.418;2022-12-01T05:20:19;11.17;;;9.83;;
12114;SDS011;6121;49.810;6.418;2022-12-01T05:23:05;26.35;;;12.98;;
12114;SDS011;6121;49.810;6.418;2022-12-01T05:25:31;12.20;;;11.00;;
12114;SDS011;6121;49.810;6.418;2022-12-01T05:27:57;12.18;;;10.93;;
12114;SDS011;6121;49.810;6.418;2022-12-01T05:30:23;13.82;;;12.45;;
12114;SDS011;6121;49.810;6.418;2022-12-01T05:32:49;17.83;;;12.07;;
12114;SDS011;6121;49.810;6.418;2022-12-01T05:35:14;21.00;;;13.23;;
12114;SDS011;6121;49.810;6.418;2022-12-01T05:37:40;17.38;;;13.05;;
12114;SDS011;6121;49.810;6.418;2022-12-01T05:40:06;15.07;;;12.80;;
12114;SDS011;6121;49.810;6.418;2022-12-01T05:42:32;17.17;;;11.52;;
12114;SDS011;6121;49.810;6.418;2022-12-01T05:44:57;12.67;;;11.37;;
12114;SDS011;6121;49.810;6.418;2022-12-01T05:47:23;17.80;;;14.13;;
12114;SDS011;6121;49.810;6.418;2022-12-01T05:49:48;14.10;;;12.53;;
12114;SDS011;6121;49.810;6.418;2022-12-01T05:52:14;18.53;;;14.07;;
12114;SDS011;6121;49.810;6.418;2022-12-01T05:54:40;15.00;;;12.63;;
12114;SDS011;6121;49.810;6.418;2022-12-01T05:57:05;14.25;;;12.25;;
12114;SDS011;6121;49.810;6.418;2022-12-01T05:59:31;14.02;;;11.30;;
12114;SDS011;6121;49.810;6.418;2022-12-01T06:01:57;12.90;;;11.27;;
12114;SDS011;6121;49.810;6.418;2022-12-01T06:04:22;16.40;;;13.37;;
12114;SDS011;6121;49.810;6.418;2022-12-01T06:06:48;17.48;;;11.60;;
12114;SDS011;6121;49.810;6.418;2022-12-01T06:09:14;11.70;;;10.50;;
12114;SDS011;6121;49.810;6.418;2022-12-01T06:11:40;13.63;;;12.13;;
12114;SDS011;6121;49.810;6.418;2022-12-01T06:14:06;18.35;;;14.35;;
12114;SDS011;6121;49.810;6.418;2022-12-01T06:16:32;13.25;;;10.23;;
12114;SDS011;6121;49.810;6.418;2022-12-01T06:18:57;14.50;;;11.60;;
12114;SDS011;6121;49.810;6.418;2022-12-01T06:21:23;12.00;;;10.30;;
12114;SDS011;6121;49.810;6.418;2022-12-01T06:23:48;15.17;;;13.03;;
12114;SDS011;6121;49.810;6.418;2022-12-01T06:26:14;13.73;;;11.23;;
12114;SDS011;6121;49.810;6.418;2022-12-01T06:28:40;14.53;;;12.33;;
12114;SDS011;6121;49.810;6.418;2022-12-01T06:31:05;14.23;;;11.87;;
12114;SDS011;6121;49.810;6.418;2022-12-01T06:33:31;12.90;;;11.10;;
12114;SDS011;6121;49.810;6.418;2022-12-01T06:36:00;11.50;;;10.18;;
12114;SDS011;6121;49.810;6.418;2022-12-01T06:38:32;12.52;;;11.10;;
12114;SDS011;6121;49.810;6.418;2022-12-01T06:40:59;14.93;;;11.15;;
12114;SDS011;6121;49.810;6.418;2022-12-01T06:43:25;12.23;;;10.93;;
12114;SDS011;6121;49.810;6.418;2022-12-01T06:45:51;12.80;;;11.05;;
12114;SDS011;6121;49.810;6.418;2022-12-01T06:48:17;11.32;;;10.02;;
12114;SDS011;6121;49.810;6.418;2022-12-01T06:50:42;11.85;;;10.18;;
12114;SDS011;6121;49.810;6.418;2022-12-01T06:53:08;11.60;;;9.63;;
12114;SDS011;6121;49.810;6.418;2022-12-01T06:55:35;11.25;;;9.85;;
12114;SDS011;6121;49.810;6.418;2022-12-01T06:58:02;16.88;;;11.88;;
12114;SDS011;6121;49.810;6.418;2022-12-01T07:00:27;24.25;;;11.48;;
12114;SDS011;6121;49.810;6.418;2022-12-01T07:02:53;14.57;;;11.98;;
12114;SDS011;6121;49.810;6.418;2022-12-01T07:05:19;14.10;;;10.75;;
12114;SDS011;6121;49.810;6.418;2022-12-01T07:07:44;14.65;;;11.98;;
12114;SDS011;6121;49.810;6.418;2022-12-01T07:10:10;12.57;;;11.07;;
12114;SDS011;6121;49.810;6.418;2022-12-01T07:12:37;15.52;;;11.90;;
12114;SDS011;6121;49.810;6.418;2022-12-01T07:15:04;15.35;;;12.60;;
12114;SDS011;6121;49.810;6.418;2022-12-01T07:17:30;14.32;;;11.27;;
12114;SDS011;6121;49.810;6.418;2022-12-01T07:19:56;12.00;;;10.33;;
12114;SDS011;6121;49.810;6.418;2022-12-01T07:22:21;11.83;;;10.60;;
12114;SDS011;6121;49.810;6.418;2022-12-01T07:24:48;14.32;;;10.80;;
12114;SDS011;6121;49.810;6.418;2022-12-01T07:27:13;11.07;;;9.93;;
12114;SDS011;6121;49.810;6.418;2022-12-01T07:29:39;14.57;;;11.43;;
12114;SDS011;6121;49.810;6.418;2022-12-01T07:32:04;12.13;;;10.23;;
12114;SDS011;6121;49.810;6.418;2022-12-01T07:34:30;12.40;;;10.93;;
12114;SDS011;6121;49.810;6.418;2022-12-01T07:36:56;12.40;;;11.03;;
12114;SDS011;6121;49.810;6.418;2022-12-01T07:39:22;14.48;;;12.23;;
12114;SDS011;6121;49.810;6.418;2022-12-01T07:41:48;12.77;;;10.95;;
12114;SDS011;6121;49.810;6.418;2022-12-01T07:44:13;16.08;;;13.23;;
12114;SDS011;6121;49.810;6.418;2022-12-01T07:46:39;13.27;;;11.15;;
12114;SDS011;6121;49.810;6.418;2022-12-01T07:49:05;17.65;;;13.90;;
12114;SDS011;6121;49.810;6.418;2022-12-01T07:51:32;15.77;;;10.75;;
12114;SDS011;6121;49.810;6.418;2022-12-01T07:54:03;20.50;;;14.48;;
12114;SDS011;6121;49.810;6.418;2022-12-01T07:56:31;18.17;;;12.57;;
12114;SDS011;6121;49.810;6.418;2022-12-01T07:58:57;14.90;;;13.10;;
12114;SDS011;6121;49.810;6.418;2022-12-01T08:01:23;19.97;;;13.50;;
12114;SDS011;6121;49.810;6.418;2022-12-01T08:03:50;20.48;;;15.10;;
12114;SDS011;6121;49.810;6.418;2022-12-01T08:06:18;18.58;;;13.63;;
12114;SDS011;6121;49.810;6.418;2022-12-01T08:08:45;21.08;;;15.80;;
12114;SDS011;6121;49.810;6.418;2022-12-01T08:11:18;21.30;;;14.83;;
12114;SDS011;6121;49.810;6.418;2022-12-01T08:13:45;16.60;;;13.43;;
12114;SDS011;6121;49.810;6.418;2022-12-01T08:16:12;14.40;;;12.20;;
12114;SDS011;6121;49.810;6.418;2022-12-01T08:18:39;16.38;;;13.13;;
12114;SDS011;6121;49.810;6.418;2022-12-01T08:21:06;19.88;;;13.48;;
12114;SDS011;6121;49.810;6.418;2022-12-01T08:23:33;14.55;;;12.35;;
12114;SDS011;6121;49.810;6.418;2022-12-01T08:26:00;15.30;;;13.00;;
12114;SDS011;6121;49.810;6.418;2022-12-01T08:28:26;21.58;;;14.18;;
12114;SDS011;6121;49.810;6.418;2022-12-01T08:30:52;15.90;;;13.87;;
12114;SDS011;6121;49.810;6.418;2022-12-01T08:33:18;20.30;;;14.40;;
12114;SDS011;6121;49.810;6.418;2022-12-01T08:35:44;15.90;;;13.07;;
12114;SDS011;6121;49.810;6.418;2022-12-01T08:38:09;18.00;;;14.57;;
12114;SDS011;6121;49.810;6.418;2022-12-01T08:40:36;21.77;;;15.70;;
12114;SDS011;6121;49.810;6.418;2022-12-01T08:43:01;18.83;;;16.87;;
12114;SDS011;6121;49.810;6.418;2022-12-01T08:45:27;18.87;;;17.00;;
12114;SDS011;6121;49.810;6.418;2022-12-01T08:47:53;21.97;;;16.90;;
12114;SDS011;6121;49.810;6.418;2022-12-01T08:50:22;18.30;;;16.80;;
12114;SDS011;6121;49.810;6.418;2022-12-01T08:52:49;23.25;;;20.95;;
12114;SDS011;6121;49.810;6.418;2022-12-01T08:55:15;31.25;;;28.40;;
12114;SDS011;6121;49.810;6.418;2022-12-01T08:57:40;33.10;;;30.33;;
12114;SDS011;6121;49.810;6.418;2022-12-01T09:00:06;37.85;;;34.38;;
12114;SDS011;6121;49.810;6.418;2022-12-01T09:02:32;32.83;;;29.75;;
12114;SDS011;6121;49.810;6.418;2022-12-01T09:04:57;31.03;;;28.47;;
12114;SDS011;6121;49.810;6.418;2022-12-01T09:07:23;42.00;;;38.40;;
12114;SDS011;6121;49.810;6.418;2022-12-01T09:09:48;37.50;;;34.40;;
12114;SDS011;6121;49.810;6.418;2022-12-01T09:12:14;33.55;;;30.95;;
12114;SDS011;6121;49.810;6.418;2022-12-01T09:14:41;34.05;;;31.33;;
12114;SDS011;6121;49.810;6.418;2022-12-01T09:17:12;32.88;;;30.45;;
12114;SDS011;6121;49.810;6.418;2022-12-01T09:19:38;41.55;;;38.53;;
12114;SDS011;6121;49.810;6.418;2022-12-01T09:22:03;36.17;;;33.53;;
12114;SDS011;6121;49.810;6.418;2022-12-01T09:24:29;36.83;;;33.93;;
12114;SDS011;6121;49.810;6.418;2022-12-01T09:26:55;35.40;;;32.93;;
12114;SDS011;6121;49.810;6.418;2022-12-01T09:29:22;35.83;;;33.38;;
12114;SDS011;6121;49.810;6.418;2022-12-01T09:31:48;36.45;;;33.38;;
12114;SDS011;6121;49.810;6.418;2022-12-01T09:34:18;35.30;;;32.70;;
12114;SDS011;6121;49.810;6.418;2022-12-01T09:36:44;36.53;;;32.97;;
12114;SDS011;6121;49.810;6.418;2022-12-01T09:39:11;38.67;;;34.92;;
12114;SDS011;6121;49.810;6.418;2022-12-01T09:41:56;38.35;;;34.92;;
12114;SDS011;6121;49.810;6.418;2022-12-01T09:44:45;46.58;;;43.63;;
12114;SDS011;6121;49.810;6.418;2022-12-01T09:52:19;54.17;;;50.10;;
12114;SDS011;6121;49.810;6.418;2022-12-01T09:54:47;56.58;;;51.88;;
12114;SDS011;6121;49.810;6.418;2022-12-01T09:57:27;58.25;;;54.22;;
12114;SDS011;6121;49.810;6.418;2022-12-01T10:00:06;57.22;;;52.28;;
12114;SDS011;6121;49.810;6.418;2022-12-01T10:03:04;53.53;;;49.70;;
12114;SDS011;6121;49.810;6.418;2022-12-01T10:05:35;64.38;;;60.38;;
12114;SDS011;6121;49.810;6.418;2022-12-01T10:08:09;63.20;;;59.17;;
12114;SDS011;6121;49.810;6.418;2022-12-01T10:10:42;74.85;;;70.35;;
12114;SDS011;6121;49.810;6.418;2022-12-01T10:13:20;80.93;;;76.40;;
12114;SDS011;6121;49.810;6.418;2022-12-01T10:15:55;98.00;;;92.68;;
12114;SDS011;6121;49.810;6.418;2022-12-01T10:18:57;80.50;;;76.03;;
12114;SDS011;6121;49.810;6.418;2022-12-01T10:21:38;85.88;;;80.97;;
12114;SDS011;6121;49.810;6.418;2022-12-01T10:24:23;62.88;;;58.67;;
12114;SDS011;6121;49.810;6.418;2022-12-01T10:26:59;70.03;;;65.65;;
12114;SDS011;6121;49.810;6.418;2022-12-01T10:32:19;72.40;;;67.45;;
12114;SDS011;6121;49.810;6.418;2022-12-01T10:34:57;59.13;;;54.95;;
12114;SDS011;6121;49.810;6.418;2022-12-01T10:37:23;66.87;;;62.20;;
12114;SDS011;6121;49.810;6.418;2022-12-01T10:39:52;66.53;;;62.13;;
12114;SDS011;6121;49.810;6.418;2022-12-01T10:42:36;71.05;;;66.28;;
12114;SDS011;6121;49.810;6.418;2022-12-01T10:45:09;78.85;;;74.10;;
12114;SDS011;6121;49.810;6.418;2022-12-01T10:50:44;98.33;;;93.23;;
12114;SDS011;6121;49.810;6.418;2022-12-01T10:58:24;135.65;;;127.85;;
12114;SDS011;6121;49.810;6.418;2022-12-01T11:00:58;131.68;;;125.07;;
12114;SDS011;6121;49.810;6.418;2022-12-01T11:03:30;152.15;;;144.13;;
12114;SDS011;6121;49.810;6.418;2022-12-01T11:05:59;147.20;;;139.73;;
12114;SDS011;6121;49.810;6.418;2022-12-01T11:11:05;165.45;;;156.20;;
12114;SDS011;6121;49.810;6.418;2022-12-01T11:13:55;160.90;;;152.95;;
12114;SDS011;6121;49.810;6.418;2022-12-01T11:16:33;143.13;;;135.53;;
12114;SDS011;6121;49.810;6.418;2022-12-01T11:21:46;140.18;;;132.27;;
12114;SDS011;6121;49.810;6.418;2022-12-01T11:24:27;109.85;;;103.55;;
12114;SDS011;6121;49.810;6.418;2022-12-01T11:27:14;125.28;;;118.55;;
12114;SDS011;6121;49.810;6.418;2022-12-01T11:29:48;206.32;;;196.48;;
12114;SDS011;6121;49.810;6.418;2022-12-01T11:32:18;282.65;;;270.63;;
12114;SDS011;6121;49.810;6.418;2022-12-01T11:34:57;959.90;;;898.83;;
12114;SDS011;6121;49.810;6.418;2022-12-01T11:37:36;967.22;;;905.85;;
12114;SDS011;6121;49.810;6.418;2022-12-01T11:40:07;850.55;;;795.22;;
12114;SDS011;6121;49.810;6.418;2022-12-01T11:42:45;368.55;;;352.75;;
12114;SDS011;6121;49.810;6.418;2022-12-01T11:47:57;386.73;;;370.20;;
12114;SDS011;6121;49.810;6.418;2022-12-01T11:50:24;393.98;;;377.25;;
12114;SDS011;6121;49.810;6.418;2022-12-01T11:52:52;426.55;;;408.65;;
12114;SDS011;6121;49.810;6.418;2022-12-01T11:55:22;968.00;;;906.58;;
12114;SDS011;6121;49.810;6.418;2022-12-01T11:57:52;975.08;;;913.00;;
12114;SDS011;6121;49.810;6.418;2022-12-01T12:00:21;965.90;;;903.92;;
12114;SDS011;6121;49.810;6.418;2022-12-01T12:03:07;957.70;;;896.15;;
12114;SDS011;6121;49.810;6.418;2022-12-01T12:05:51;962.72;;;900.63;;
12114;SDS011;6121;49.810;6.418;2022-12-01T12:08:33;968.20;;;906.47;;
12114;SDS011;6121;49.810;6.418;2022-12-01T12:11:36;17.30;;;11.40;;
12114;SDS011;6121;49.810;6.418;2022-12-01T12:25:00;949.05;;;890.33;;
12114;SDS011;6121;49.810;6.418;2022-12-01T12:27:59;959.53;;;898.58;;
12114;SDS011;6121;49.810;6.418;2022-12-01T12:30:28;976.55;;;914.08;;
12114;SDS011;6121;49.810;6.418;2022-12-01T12:33:02;159.85;;;152.95;;
12114;SDS011;6121;49.810;6.418;2022-12-01T12:44:42;581.15;;;555.25;;
12114;SDS011;6121;49.810;6.418;2022-12-01T12:47:30;629.30;;;601.33;;
12114;SDS011;6121;49.810;6.418;2022-12-01T12:52:42;511.17;;;488.87;;
12114;SDS011;6121;49.810;6.418;2022-12-01T12:55:21;956.15;;;895.65;;
12114;SDS011;6121;49.810;6.418;2022-12-01T12:58:02;958.60;;;896.33;;
12114;SDS011;6121;49.810;6.418;2022-12-01T13:00:31;951.28;;;890.55;;
12114;SDS011;6121;49.810;6.418;2022-12-01T13:06:10;954.72;;;892.60;;
12114;SDS011;6121;49.810;6.418;2022-12-01T13:08:45;459.95;;;439.25;;
12114;SDS011;6121;49.810;6.418;2022-12-01T13:11:17;554.37;;;528.23;;
12114;SDS011;6121;49.810;6.418;2022-12-01T13:16:29;541.40;;;516.75;;
12114;SDS011;6121;49.810;6.418;2022-12-01T13:19:24;557.67;;;532.00;;
12114;SDS011;6121;49.810;6.418;2022-12-01T13:21:52;641.97;;;610.85;;
12114;SDS011;6121;49.810;6.418;2022-12-01T13:24:20;561.58;;;535.38;;
12114;SDS011;6121;49.810;6.418;2022-12-01T13:26:56;544.78;;;520.08;;
12114;SDS011;6121;49.810;6.418;2022-12-01T13:29:23;696.60;;;662.88;;
12114;SDS011;6121;49.810;6.418;2022-12-01T13:31:51;921.50;;;866.73;;
12114;SDS011;6121;49.810;6.418;2022-12-01T13:34:25;976.00;;;918.70;;
12114;SDS011;6121;49.810;6.418;2022-12-01T13:36:56;961.83;;;903.97;;
12114;SDS011;6121;49.810;6.418;2022-12-01T13:39:23;970.67;;;915.55;;
12114;SDS011;6121;49.810;6.418;2022-12-01T13:42:25;73.78;;;66.43;;
12114;SDS011;6121;49.810;6.418;2022-12-01T14:03:56;430.67;;;401.15;;
12114;SDS011;6121;49.810;6.418;2022-12-01T14:06:36;923.60;;;872.88;;
12114;SDS011;6121;49.810;6.418;2022-12-01T14:09:10;965.60;;;902.47;;
12114;SDS011;6121;49.810;6.418;2022-12-01T14:11:38;969.80;;;905.10;;
12114;SDS011;6121;49.810;6.418;2022-12-01T14:14:10;967.58;;;905.17;;
12114;SDS011;6121;49.810;6.418;2022-12-01T14:16:50;13.52;;;8.40;;
12114;SDS011;6121;49.810;6.418;2022-12-01T14:19:38;853.80;;;810.00;;
12114;SDS011;6121;49.810;6.418;2022-12-01T14:23:02;926.47;;;876.13;;
12114;SDS011;6121;49.810;6.418;2022-12-01T14:27:51;954.72;;;892.22;;
12114;SDS011;6121;49.810;6.418;2022-12-01T14:36:04;883.67;;;837.63;;
12114;SDS011;6121;49.810;6.418;2022-12-01T14:38:33;943.67;;;892.40;;
12114;SDS011;6121;49.810;6.418;2022-12-01T14:40:59;956.63;;;893.10;;
12114;SDS011;6121;49.810;6.418;2022-12-01T14:43:30;14.95;;;10.98;;
12114;SDS011;6121;49.810;6.418;2022-12-01T14:46:18;191.10;;;179.85;;
12114;SDS011;6121;49.810;6.418;2022-12-01T14:48:48;769.22;;;730.85;;
12114;SDS011;6121;49.810;6.418;2022-12-01T14:51:27;900.13;;;851.45;;
12114;SDS011;6121;49.810;6.418;2022-12-01T14:54:00;942.17;;;881.55;;
12114;SDS011;6121;49.810;6.418;2022-12-01T14:56:31;437.65;;;417.33;;
12114;SDS011;6121;49.810;6.418;2022-12-01T14:58:58;881.83;;;832.75;;
12114;SDS011;6121;49.810;6.418;2022-12-01T15:01:35;390.35;;;364.48;;
12114;SDS011;6121;49.810;6.418;2022-12-01T15:04:03;12.18;;;7.15;;
12114;SDS011;6121;49.810;6.418;2022-12-01T15:06:30;11.97;;;6.57;;
12114;SDS011;6121;49.810;6.418;2022-12-01T15:09:17;11.52;;;7.85;;
12114;SDS011;6121;49.810;6.418;2022-12-01T15:16:58;16.50;;;10.32;;
12114;SDS011;6121;49.810;6.418;2022-12-01T15:22:03;17.55;;;13.32;;
12114;SDS011;6121;49.810;6.418;2022-12-01T15:24:39;16.90;;;11.23;;
12114;SDS011;6121;49.810;6.418;2022-12-01T15:27:21;15.10;;;10.65;;
12114;SDS011;6121;49.810;6.418;2022-12-01T15:29:47;19.52;;;13.18;;
12114;SDS011;6121;49.810;6.418;2022-12-01T15:32:14;20.00;;;13.70;;
12114;SDS011;6121;49.810;6.418;2022-12-01T15:34:46;25.00;;;15.13;;
12114;SDS011;6121;49.810;6.418;2022-12-01T15:37:25;216.75;;;205.73;;
12114;SDS011;6121;49.810;6.418;2022-12-01T15:39:58;876.83;;;827.63;;
12114;SDS011;6121;49.810;6.418;2022-12-01T15:42:34;863.42;;;818.92;;
12114;SDS011;6121;49.810;6.418;2022-12-01T15:47:49;152.35;;;144.38;;
12114;SDS011;6121;49.810;6.418;2022-12-01T15:50:26;880.55;;;832.17;;
12114;SDS011;6121;49.810;6.418;2022-12-01T15:52:58;13.88;;;9.32;;
12114;SDS011;6121;49.810;6.418;2022-12-01T15:55:27;12.98;;;8.50;;
12114;SDS011;6121;49.810;6.418;2022-12-01T15:57:56;17.00;;;10.88;;
12114;SDS011;6121;49.810;6.418;2022-12-01T16:00:22;16.98;;;9.77;;
12114;SDS011;6121;49.810;6.418;2022-12-01T16:02:55;17.20;;;9.75;;
12114;SDS011;6121;49.810;6.418;2022-12-01T16:05:32;18.20;;;9.70;;
12114;SDS011;6121;49.810;6.418;2022-12-01T16:13:47;14.55;;;9.43;;
12114;SDS011;6121;49.810;6.418;2022-12-01T16:16:38;16.90;;;9.30;;
12114;SDS011;6121;49.810;6.418;2022-12-01T16:24:27;17.02;;;10.52;;
12114;SDS011;6121;49.810;6.418;2022-12-01T16:26:55;16.05;;;9.93;;
12114;SDS011;6121;49.810;6.418;2022-12-01T16:29:25;14.82;;;8.75;;
12114;SDS011;6121;49.810;6.418;2022-12-01T16:31:52;28.73;;;15.48;;
12114;SDS011;6121;49.810;6.418;2022-12-01T16:34:20;14.85;;;10.80;;
12114;SDS011;6121;49.810;6.418;2022-12-01T16:36:47;23.92;;;10.43;;
12114;SDS011;6121;49.810;6.418;2022-12-01T16:39:13;18.33;;;10.80;;
12114;SDS011;6121;49.810;6.418;2022-12-01T16:41:39;27.95;;;14.73;;
12114;SDS011;6121;49.810;6.418;2022-12-01T16:44:14;13.43;;;9.85;;
12114;SDS011;6121;49.810;6.418;2022-12-01T16:46:40;20.98;;;11.23;;
12114;SDS011;6121;49.810;6.418;2022-12-01T16:49:06;19.38;;;12.90;;
12114;SDS011;6121;49.810;6.418;2022-12-01T16:51:34;24.88;;;15.55;;
12114;SDS011;6121;49.810;6.418;2022-12-01T16:54:01;16.85;;;11.88;;
12114;SDS011;6121;49.810;6.418;2022-12-01T16:56:29;19.20;;;13.63;;
12114;SDS011;6121;49.810;6.418;2022-12-01T16:58:54;199.63;;;188.90;;
12114;SDS011;6121;49.810;6.418;2022-12-01T17:01:20;402.08;;;383.27;;
12114;SDS011;6121;49.810;6.418;2022-12-01T17:03:46;387.10;;;370.20;;
12114;SDS011;6121;49.810;6.418;2022-12-01T17:06:13;399.75;;;381.85;;